Observations for Trim Market St
| Time | AQI | Temp °C | Hum % | Pres Pa | CO μg/m³ | H₂S μg/m³ | NO μg/m³ | NO₂ μg/m³ | O₃ μg/m³ | SO₂ μg/m³ | PM1 μg/m³ | PM2.5 μg/m³ | PM10 μg/m³ |
|---|---|---|---|---|---|---|---|---|---|---|---|---|---|
| Friday 14 August 2026 | |||||||||||||
| 04:49 | 2 | 22 | 73 | 40,702 | 0 | 0 | 1.23 | 1.19 | 57.14 | 0 | 0 | 0.98 | 2.67 |
| 04:48 | 2 | 22.1 | 73 | 40,849 | 0 | 0 | 1.28 | 1.06 | 56.43 | 0 | 0 | 0.98 | 2.66 |
| 04:47 | 2 | 22.1 | 73 | 41,045 | 0 | 0 | 1.18 | 5.62 | 50.67 | 0 | 0 | 0.98 | 3.27 |
| 04:46 | 2 | 22.1 | 73 | 41,306 | 0 | 0 | 1.28 | 1.17 | 55.55 | 0 | 0 | 0.99 | 2.66 |
| 04:45 | 2 | 22.1 | 73 | 41,526 | 0 | 0 | 1.32 | 2.1 | 59.83 | 0 | 0 | 0.99 | 2.66 |
| 04:44 | 2 | 22.1 | 73 | 41,884 | 0 | 0 | 1.21 | 3.14 | 52.87 | 0 | 0 | 0.99 | 2.66 |
| 04:43 | 2 | 22.1 | 73 | 42,239 | 0 | 0 | 1.14 | 0.89 | 52.35 | 0 | 0 | 0.99 | 2.66 |
| 04:42 | 2 | 22.1 | 73 | 42,496 | 0 | 0 | 1.15 | 2.67 | 52.35 | 0 | 0 | 0.99 | 2.65 |
| 04:41 | 2 | 22.1 | 73 | 42,774 | 0 | 0 | 1.13 | 3.64 | 56.28 | 0 | 0 | 0.99 | 2.65 |
| 04:40 | 2 | 22.2 | 73 | 42,970 | 0 | 0 | 1.13 | 1.37 | 54.56 | 0 | 0 | 0.99 | 2.65 |
| 04:39 | 2 | 22.2 | 73 | 43,133 | 0 | 0 | 1.16 | 1.46 | 58.75 | 0 | 0 | 0.99 | 2.65 |
| 04:37 | 2 | 22.2 | 73 | 43,193 | 0 | 0 | 1.2 | 4.05 | 50.56 | 0 | 0 | 0.99 | 2.65 |
| 04:36 | 2 | 22.2 | 73 | 43,223 | 0 | 0 | 1.19 | 1.44 | 54.16 | 0 | 0 | 0.99 | 2.65 |
| 04:31 | 2 | 22.3 | 73 | 42,337 | 0 | 0 | 1.36 | 1.56 | 50.12 | 0 | 0 | 0.98 | 2.66 |
| 04:30 | 2 | 22.3 | 73 | 41,857 | 0 | 0 | 1.42 | 2.28 | 50.37 | 0 | 0 | 0.98 | 2.67 |
| 04:22 | 2 | 22.4 | 74 | 37,900 | 0 | 0 | 1.13 | 4.84 | 48.55 | 0 | 0 | 0.96 | 2.69 |
| 04:21 | 2 | 22.5 | 74 | 37,641 | 0 | 0 | 1.13 | 2.08 | 55.47 | 0 | 0 | 0.96 | 2.69 |
| 04:20 | 2 | 22.4 | 74 | 37,340 | 0 | 0 | 1.13 | 3.5 | 49.24 | 0 | 0 | 0.96 | 3.29 |
| 04:19 | 2 | 22.4 | 74 | 37,150 | 0 | 0 | 1.16 | 8.3 | 49.53 | 0 | 0 | 0.96 | 2.69 |
| 04:18 | 2 | 22.5 | 74 | 36,996 | 0 | 0 | 1.19 | 7.08 | 48.2 | 0 | 0 | 0.96 | 3.3 |